Time;durP1;ratioP1;P1;durP2;ratioP2;P2;SDS_P1;SDS_P2;PMS_P1;PMS_P2;Temp;Humidity;BMP_temperature;BMP_pressure;BME280_temperature;BME280_humidity;BME280_pressure;Samples;Min_cycle;Max_cycle;Signal;HPM_P1;HPM_P2
2021/06/24 00:02:03;;;;;;;8.23;6.10;;;;;;;;;;5064807;28;20043;-70
2021/06/24 00:04:29;;;;;;;10.65;7.47;;;;;;;;;;5073559;28;20033;-71
2021/06/24 00:06:55;;;;;;;12.00;6.88;;;;;;;;;;5076926;28;20032;-71
2021/06/24 00:09:21;;;;;;;15.02;7.50;;;;;;;;;;5073578;28;20099;-71
2021/06/24 00:11:47;;;;;;;9.57;6.55;;;;;;;;;;5081730;28;20429;-71
2021/06/24 00:14:13;;;;;;;13.65;6.07;;;;;;;;;;5093621;28;20028;-70
2021/06/24 00:16:39;;;;;;;10.95;6.20;;;;;;;;;;5079661;28;20032;-71
2021/06/24 00:19:06;;;;;;;13.82;7.18;;;;;;;;;;5071777;28;20119;-70
2021/06/24 00:21:32;;;;;;;11.98;6.22;;;;;;;;;;5062226;28;20029;-70
2021/06/24 00:23:58;;;;;;;10.88;6.18;;;;;;;;;;5072922;28;20024;-70
2021/06/24 00:26:24;;;;;;;8.38;6.03;;;;;;;;;;5073180;28;20492;-71
2021/06/24 00:28:50;;;;;;;11.38;5.72;;;;;;;;;;5073094;28;20027;-71
2021/06/24 00:31:16;;;;;;;8.93;5.40;;;;;;;;;;5072827;28;20491;-71
2021/06/24 00:33:42;;;;;;;10.00;6.05;;;;;;;;;;5063025;28;20024;-71
2021/06/24 00:36:08;;;;;;;12.45;6.03;;;;;;;;;;5070919;28;20060;-70
2021/06/24 00:38:34;;;;;;;9.50;6.05;;;;;;;;;;5072664;28;20098;-71
2021/06/24 00:41:00;;;;;;;11.80;6.00;;;;;;;;;;5072741;28;20455;-70
2021/06/24 00:43:27;;;;;;;8.77;6.32;;;;;;;;;;5072344;28;20028;-70
2021/06/24 00:45:53;;;;;;;13.75;5.85;;;;;;;;;;5072729;28;20092;-70
2021/06/24 00:48:19;;;;;;;15.68;6.55;;;;;;;;;;5072660;28;20020;-71
2021/06/24 00:50:46;;;;;;;12.85;7.28;;;;;;;;;;5063185;28;20479;-70
2021/06/24 00:53:12;;;;;;;16.52;6.82;;;;;;;;;;5052677;28;20072;-69
2021/06/24 00:55:44;;;;;;;13.40;6.43;;;;;;;;;;5059091;28;20040;-70
2021/06/24 00:58:15;;;;;;;12.45;6.88;;;;;;;;;;5072765;28;20017;-69
2021/06/24 01:00:42;;;;;;;12.75;7.40;;;;;;;;;;5072325;28;20078;-69
2021/06/24 01:03:08;;;;;;;14.18;6.65;;;;;;;;;;5072579;28;20028;-70
2021/06/24 01:05:35;;;;;;;14.38;8.18;;;;;;;;;;5072259;28;20525;-70
2021/06/24 01:08:01;;;;;;;12.38;6.75;;;;;;;;;;5059402;28;20033;-70
2021/06/24 01:10:28;;;;;;;15.23;6.75;;;;;;;;;;5056418;28;20021;-70
2021/06/24 01:12:54;;;;;;;15.27;7.75;;;;;;;;;;5072491;28;20027;-70
2021/06/24 01:15:20;;;;;;;16.70;8.15;;;;;;;;;;5072071;28;20033;-70
2021/06/24 01:17:46;;;;;;;14.60;7.95;;;;;;;;;;5072085;28;20032;-70
2021/06/24 01:20:13;;;;;;;10.70;7.30;;;;;;;;;;5064076;28;20033;-70
2021/06/24 01:22:39;;;;;;;13.32;7.80;;;;;;;;;;5072298;28;20111;-70
2021/06/24 01:25:05;;;;;;;12.55;7.82;;;;;;;;;;5071238;28;20024;-69
2021/06/24 01:27:31;;;;;;;11.30;8.60;;;;;;;;;;5071806;28;20021;-70
2021/06/24 01:29:57;;;;;;;14.15;7.70;;;;;;;;;;5072397;28;20092;-70
2021/06/24 01:32:23;;;;;;;14.95;8.10;;;;;;;;;;5072046;28;20035;-70
2021/06/24 01:34:50;;;;;;;14.05;7.13;;;;;;;;;;5071942;28;20035;-70
2021/06/24 01:37:16;;;;;;;12.40;7.07;;;;;;;;;;5072270;28;20063;-70
2021/06/24 01:39:43;;;;;;;14.57;7.70;;;;;;;;;;5071875;28;20052;-70
2021/06/24 01:42:13;;;;;;;16.50;7.28;;;;;;;;;;5058039;28;20102;-70
2021/06/24 01:44:39;;;;;;;12.68;7.10;;;;;;;;;;5069996;28;20028;-71
2021/06/24 01:47:09;;;;;;;9.45;6.63;;;;;;;;;;5072531;28;20052;-70
2021/06/24 01:49:36;;;;;;;14.38;7.25;;;;;;;;;;5072668;28;20218;-71
2021/06/24 01:52:02;;;;;;;12.38;6.68;;;;;;;;;;5075864;28;20028;-69
2021/06/24 01:54:28;;;;;;;11.90;7.70;;;;;;;;;;5075870;28;20320;-69
2021/06/24 01:56:54;;;;;;;9.88;7.30;;;;;;;;;;5075868;28;20387;-70
2021/06/24 01:59:20;;;;;;;12.75;7.22;;;;;;;;;;5060704;28;20025;-71
2021/06/24 02:01:46;;;;;;;11.52;6.68;;;;;;;;;;5065215;28;20036;-70
2021/06/24 02:04:13;;;;;;;13.63;6.75;;;;;;;;;;5075960;28;20031;-70
2021/06/24 02:06:39;;;;;;;15.98;6.72;;;;;;;;;;5075469;28;20079;-70
2021/06/24 02:09:05;;;;;;;9.82;6.35;;;;;;;;;;5075728;28;20020;-70
2021/06/24 02:11:32;;;;;;;11.15;6.55;;;;;;;;;;5075635;28;20020;-70
2021/06/24 02:13:58;;;;;;;9.30;7.03;;;;;;;;;;5075711;28;20143;-70
2021/06/24 02:16:24;;;;;;;13.70;7.30;;;;;;;;;;5064057;28;20028;-70
2021/06/24 02:18:50;;;;;;;12.57;7.53;;;;;;;;;;5075753;28;20025;-70
2021/06/24 02:21:16;;;;;;;10.00;7.20;;;;;;;;;;5060431;28;20047;-70
2021/06/24 02:23:42;;;;;;;11.70;7.15;;;;;;;;;;5075342;28;20052;-70
2021/06/24 02:26:08;;;;;;;14.75;8.15;;;;;;;;;;5075347;28;20085;-69
2021/06/24 02:28:34;;;;;;;9.95;7.28;;;;;;;;;;5075512;28;20095;-70
2021/06/24 02:31:00;;;;;;;14.43;7.43;;;;;;;;;;5075130;28;20417;-70
2021/06/24 02:33:27;;;;;;;10.77;7.22;;;;;;;;;;5059200;28;20092;-70
2021/06/24 02:35:57;;;;;;;14.55;8.18;;;;;;;;;;5069973;28;20029;-70
2021/06/24 02:38:23;;;;;;;13.88;6.93;;;;;;;;;;5074935;28;20024;-70
2021/06/24 02:40:49;;;;;;;14.07;8.77;;;;;;;;;;5074935;28;20028;-70
2021/06/24 02:43:15;;;;;;;13.80;7.78;;;;;;;;;;5075281;28;20073;-71
2021/06/24 02:45:44;;;;;;;11.70;7.85;;;;;;;;;;5074313;28;20503;-70
2021/06/24 02:48:10;;;;;;;11.88;7.75;;;;;;;;;;5074872;28;20035;-70
2021/06/24 02:50:36;;;;;;;10.40;8.02;;;;;;;;;;5056339;28;20021;-70
2021/06/24 02:53:02;;;;;;;10.75;7.60;;;;;;;;;;5073664;28;20037;-70
2021/06/24 02:55:31;;;;;;;15.13;8.35;;;;;;;;;;5075034;28;20094;-70
2021/06/24 02:58:00;;;;;;;17.50;9.18;;;;;;;;;;5074546;28;20034;-70
2021/06/24 03:00:27;;;;;;;12.93;8.38;;;;;;;;;;5074744;28;20472;-70
2021/06/24 03:02:56;;;;;;;12.57;8.20;;;;;;;;;;5074697;28;20427;-71
2021/06/24 03:05:23;;;;;;;14.40;8.73;;;;;;;;;;5074721;28;20028;-69
2021/06/24 03:07:49;;;;;;;16.58;8.77;;;;;;;;;;5070828;28;20482;-69
2021/06/24 03:10:17;;;;;;;13.07;9.00;;;;;;;;;;5074828;28;20025;-70
2021/06/24 03:12:44;;;;;;;14.07;8.77;;;;;;;;;;5074462;28;20051;-70
2021/06/24 03:15:10;;;;;;;13.18;8.60;;;;;;;;;;5074678;28;20020;-70
2021/06/24 03:17:36;;;;;;;15.88;8.98;;;;;;;;;;5074434;28;20036;-69
2021/06/24 03:20:07;;;;;;;14.63;8.95;;;;;;;;;;5066610;28;20024;-70
2021/06/24 03:22:34;;;;;;;15.93;8.93;;;;;;;;;;5074749;28;20032;-69
2021/06/24 03:25:01;;;;;;;16.45;9.73;;;;;;;;;;5067839;28;20020;-70
2021/06/24 03:27:28;;;;;;;15.30;9.40;;;;;;;;;;5094690;28;20023;-70
2021/06/24 03:29:54;;;;;;;16.98;9.63;;;;;;;;;;5088301;28;20058;-70
2021/06/24 03:32:20;;;;;;;17.52;10.70;;;;;;;;;;5073988;28;20025;-70
2021/06/24 03:34:46;;;;;;;15.35;10.88;;;;;;;;;;5074296;28;20024;-70
2021/06/24 03:37:12;;;;;;;14.50;10.65;;;;;;;;;;5074117;28;20033;-70
2021/06/24 03:39:39;;;;;;;16.23;11.75;;;;;;;;;;5072151;28;20040;-70
2021/06/24 03:42:05;;;;;;;17.17;11.55;;;;;;;;;;5054225;28;20506;-70
2021/06/24 03:44:31;;;;;;;24.45;11.93;;;;;;;;;;5071886;28;20116;-71
2021/06/24 03:46:57;;;;;;;16.38;12.43;;;;;;;;;;5074069;28;20025;-68
2021/06/24 03:49:23;;;;;;;15.32;11.23;;;;;;;;;;5073726;28;20494;-70
2021/06/24 03:51:49;;;;;;;15.75;10.77;;;;;;;;;;5073809;28;20098;-71
2021/06/24 03:54:15;;;;;;;17.33;11.93;;;;;;;;;;5073361;28;20062;-70
2021/06/24 03:56:41;;;;;;;15.20;10.85;;;;;;;;;;5070220;28;20025;-70
2021/06/24 03:59:08;;;;;;;17.83;11.45;;;;;;;;;;5053840;28;20104;-70
2021/06/24 04:01:42;;;;;;;17.75;10.98;;;;;;;;;;5061603;28;20047;-70
2021/06/24 04:04:08;;;;;;;20.35;10.80;;;;;;;;;;5073680;28;20132;-70
2021/06/24 04:06:34;;;;;;;17.42;11.38;;;;;;;;;;5073354;28;20028;-70
2021/06/24 04:09:00;;;;;;;18.45;11.65;;;;;;;;;;5073599;28;20017;-70
2021/06/24 04:11:26;;;;;;;20.48;9.88;;;;;;;;;;5073017;28;20048;-69
2021/06/24 04:13:52;;;;;;;17.35;12.25;;;;;;;;;;5072033;28;20032;-70
2021/06/24 04:16:18;;;;;;;19.23;11.10;;;;;;;;;;5073032;28;20111;-70
2021/06/24 04:18:44;;;;;;;18.67;11.23;;;;;;;;;;5073084;28;20035;-70
2021/06/24 04:21:10;;;;;;;16.77;11.70;;;;;;;;;;5072227;28;20395;-70
2021/06/24 04:23:36;;;;;;;19.10;11.48;;;;;;;;;;5073159;28;20433;-70
2021/06/24 04:26:02;;;;;;;19.30;11.25;;;;;;;;;;5072999;28;20033;-70
2021/06/24 04:28:28;;;;;;;17.42;11.27;;;;;;;;;;5073118;28;20078;-70
2021/06/24 04:30:54;;;;;;;18.48;11.00;;;;;;;;;;5055328;28;20025;-70
2021/06/24 04:33:21;;;;;;;15.30;11.50;;;;;;;;;;5053084;28;20025;-70
2021/06/24 04:35:47;;;;;;;18.65;11.70;;;;;;;;;;5068686;28;20024;-69
2021/06/24 04:38:14;;;;;;;16.33;11.88;;;;;;;;;;5073010;28;20025;-70
2021/06/24 04:40:40;;;;;;;23.73;13.38;;;;;;;;;;5072607;28;20101;-70
2021/06/24 04:43:06;;;;;;;17.05;12.25;;;;;;;;;;5072768;28;20024;-69
2021/06/24 04:45:32;;;;;;;27.38;14.50;;;;;;;;;;5072680;28;20021;-70
2021/06/24 04:47:59;;;;;;;24.38;14.60;;;;;;;;;;5072185;28;20073;-69
2021/06/24 04:50:25;;;;;;;25.90;13.63;;;;;;;;;;5071607;28;20032;-70
2021/06/24 04:52:51;;;;;;;20.77;13.52;;;;;;;;;;5072403;28;20483;-69
2021/06/24 04:55:18;;;;;;;20.17;14.10;;;;;;;;;;5072700;28;20032;-70
2021/06/24 04:57:44;;;;;;;23.80;13.93;;;;;;;;;;5072368;28;20043;-71
2021/06/24 05:00:10;;;;;;;20.25;14.32;;;;;;;;;;5072557;28;20103;-70
2021/06/24 05:02:36;;;;;;;22.05;14.60;;;;;;;;;;5071102;28;20028;-70
2021/06/24 05:05:06;;;;;;;27.40;16.67;;;;;;;;;;5066505;28;20035;-70
2021/06/24 05:07:32;;;;;;;26.40;16.13;;;;;;;;;;5067123;28;20116;-70
2021/06/24 05:09:58;;;;;;;33.28;19.02;;;;;;;;;;5071785;28;20017;-70
2021/06/24 05:12:24;;;;;;;31.75;17.85;;;;;;;;;;5075605;28;20052;-69
2021/06/24 05:14:52;;;;;;;28.15;18.23;;;;;;;;;;5069743;28;20039;-69
2021/06/24 05:17:18;;;;;;;36.97;19.08;;;;;;;;;;5070349;28;20025;-71
2021/06/24 05:19:44;;;;;;;29.55;17.98;;;;;;;;;;5064989;28;20365;-68
2021/06/24 05:22:11;;;;;;;28.63;17.77;;;;;;;;;;5061275;28;20024;-69
2021/06/24 05:24:37;;;;;;;34.13;20.15;;;;;;;;;;5060120;28;20036;-69
2021/06/24 05:27:03;;;;;;;33.90;18.45;;;;;;;;;;5070325;28;20020;-70
2021/06/24 05:29:29;;;;;;;36.00;20.20;;;;;;;;;;5070143;28;20036;-70
2021/06/24 05:31:55;;;;;;;35.63;19.75;;;;;;;;;;5071644;28;20025;-69
2021/06/24 05:34:21;;;;;;;34.85;19.20;;;;;;;;;;5071676;28;20024;-70
2021/06/24 05:36:48;;;;;;;35.85;18.77;;;;;;;;;;5072106;28;20082;-69
2021/06/24 05:39:14;;;;;;;29.13;17.20;;;;;;;;;;5065248;28;20714;-70
2021/06/24 05:41:40;;;;;;;33.90;18.42;;;;;;;;;;5052021;28;20037;-70
2021/06/24 05:44:06;;;;;;;27.17;17.02;;;;;;;;;;5065419;28;20028;-69
2021/06/24 05:46:32;;;;;;;31.65;17.95;;;;;;;;;;5072063;28;20078;-69
2021/06/24 05:48:58;;;;;;;28.55;17.80;;;;;;;;;;5072002;28;20491;-70
2021/06/24 05:51:24;;;;;;;26.02;16.20;;;;;;;;;;5072115;28;20032;-70
2021/06/24 05:53:50;;;;;;;32.67;18.52;;;;;;;;;;5071708;28;20376;-71
2021/06/24 05:56:17;;;;;;;29.23;16.85;;;;;;;;;;5070154;28;20024;-70
2021/06/24 05:58:43;;;;;;;28.50;15.90;;;;;;;;;;5072019;28;20031;-70
2021/06/24 06:01:09;;;;;;;25.88;16.50;;;;;;;;;;5072332;28;20483;-70
2021/06/24 06:03:35;;;;;;;29.48;18.10;;;;;;;;;;5069543;28;20028;-70
2021/06/24 06:06:02;;;;;;;25.77;15.65;;;;;;;;;;5070242;28;20029;-71
2021/06/24 06:08:28;;;;;;;23.67;14.85;;;;;;;;;;5077351;28;20031;-70
2021/06/24 06:10:54;;;;;;;25.65;15.25;;;;;;;;;;5082391;28;20050;-70
2021/06/24 06:13:20;;;;;;;21.15;14.15;;;;;;;;;;5074535;28;20100;-70
2021/06/24 06:15:48;;;;;;;23.13;13.00;;;;;;;;;;5076157;28;20025;-69
2021/06/24 06:18:16;;;;;;;20.05;12.63;;;;;;;;;;5076306;28;20032;-69
2021/06/24 06:20:44;;;;;;;22.45;12.77;;;;;;;;;;5069512;28;20037;-69
2021/06/24 06:23:10;;;;;;;20.13;12.00;;;;;;;;;;5070164;28;20087;-70
2021/06/24 06:25:36;;;;;;;21.75;13.43;;;;;;;;;;5070355;28;20561;-69
2021/06/24 06:28:02;;;;;;;20.92;13.25;;;;;;;;;;5071334;28;20032;-70
2021/06/24 06:30:28;;;;;;;24.10;13.82;;;;;;;;;;5063264;28;20029;-70
2021/06/24 06:32:55;;;;;;;22.02;14.57;;;;;;;;;;5068658;28;20025;-70
2021/06/24 06:35:21;;;;;;;24.40;14.77;;;;;;;;;;5072017;28;20086;-69
2021/06/24 06:37:47;;;;;;;18.35;12.85;;;;;;;;;;5075190;28;20024;-70
2021/06/24 06:40:13;;;;;;;18.27;11.68;;;;;;;;;;5075112;28;20040;-70
2021/06/24 06:42:40;;;;;;;15.70;9.90;;;;;;;;;;5075511;28;20039;-71
2021/06/24 06:45:06;;;;;;;14.75;9.25;;;;;;;;;;5075134;28;20027;-70
2021/06/24 06:47:33;;;;;;;17.58;10.15;;;;;;;;;;5073939;28;20390;-71
2021/06/24 06:49:59;;;;;;;15.32;9.57;;;;;;;;;;5074880;28;20475;-70
2021/06/24 06:52:25;;;;;;;11.20;8.13;;;;;;;;;;5075259;28;20028;-70
2021/06/24 06:54:51;;;;;;;12.30;9.40;;;;;;;;;;5074685;28;20111;-69
2021/06/24 06:57:17;;;;;;;16.52;9.65;;;;;;;;;;5068384;28;20032;-70
2021/06/24 06:59:43;;;;;;;14.02;9.30;;;;;;;;;;5068470;28;20461;-71
2021/06/24 07:02:09;;;;;;;13.57;10.48;;;;;;;;;;5070346;28;20037;-70
2021/06/24 07:04:36;;;;;;;15.25;8.43;;;;;;;;;;5065697;28;20037;-71
2021/06/24 07:07:02;;;;;;;12.70;6.60;;;;;;;;;;5073913;28;20029;-70
2021/06/24 07:09:28;;;;;;;8.70;6.20;;;;;;;;;;5070798;28;20107;-71
2021/06/24 07:11:54;;;;;;;12.07;7.32;;;;;;;;;;5072844;28;20475;-70
2021/06/24 07:14:21;;;;;;;10.27;6.85;;;;;;;;;;5076209;28;20123;-70
2021/06/24 07:16:47;;;;;;;9.02;6.50;;;;;;;;;;5064329;28;20032;-69
2021/06/24 07:19:13;;;;;;;14.35;7.88;;;;;;;;;;5066678;28;20032;-70
2021/06/24 07:21:40;;;;;;;9.07;7.55;;;;;;;;;;5071751;28;20063;-70
2021/06/24 07:24:06;;;;;;;10.80;6.95;;;;;;;;;;5070870;28;20094;-70
2021/06/24 07:26:32;;;;;;;13.10;6.93;;;;;;;;;;5074345;28;20029;-70
2021/06/24 07:28:59;;;;;;;13.93;7.47;;;;;;;;;;5070127;28;20055;-70
2021/06/24 07:31:25;;;;;;;10.13;7.78;;;;;;;;;;5071361;28;20697;-70
2021/06/24 07:33:51;;;;;;;14.65;7.82;;;;;;;;;;5070550;28;20072;-70
2021/06/24 07:36:17;;;;;;;11.32;7.68;;;;;;;;;;5077604;28;20106;-70
2021/06/24 07:38:43;;;;;;;12.10;6.82;;;;;;;;;;5077149;28;20047;-69
2021/06/24 07:41:09;;;;;;;17.50;8.32;;;;;;;;;;5068376;28;20028;-70
2021/06/24 07:43:35;;;;;;;9.10;6.55;;;;;;;;;;5066226;28;20380;-71
2021/06/24 07:46:01;;;;;;;11.07;7.00;;;;;;;;;;5066850;28;20029;-70
2021/06/24 07:48:27;;;;;;;12.57;8.00;;;;;;;;;;5069113;28;20028;-70
2021/06/24 07:50:54;;;;;;;11.57;6.82;;;;;;;;;;5067188;28;20542;-72
2021/06/24 07:53:20;;;;;;;9.15;6.22;;;;;;;;;;5073289;28;20052;-72
2021/06/24 07:55:46;;;;;;;11.35;6.68;;;;;;;;;;5059313;28;20025;-70
2021/06/24 07:58:12;;;;;;;7.85;5.70;;;;;;;;;;5072440;28;20394;-69
2021/06/24 08:00:38;;;;;;;9.18;6.32;;;;;;;;;;5069317;28;20031;-68
2021/06/24 08:03:06;;;;;;;7.78;5.18;;;;;;;;;;5072265;28;20039;-70
2021/06/24 08:05:32;;;;;;;9.85;6.75;;;;;;;;;;5069072;28;20033;-69
2021/06/24 08:07:58;;;;;;;8.85;6.30;;;;;;;;;;5072663;28;20028;-70
2021/06/24 08:10:24;;;;;;;9.50;6.35;;;;;;;;;;5069941;28;20025;-69
2021/06/24 08:12:50;;;;;;;12.63;7.25;;;;;;;;;;5064854;28;20482;-70
2021/06/24 08:15:18;;;;;;;8.77;6.70;;;;;;;;;;5066320;28;20112;-70
2021/06/24 08:17:45;;;;;;;9.95;6.30;;;;;;;;;;5070226;28;20036;-70
2021/06/24 08:20:12;;;;;;;9.70;6.30;;;;;;;;;;5070532;28;20115;-69
2021/06/24 08:22:38;;;;;;;6.47;5.78;;;;;;;;;;5070704;28;20037;-70
2021/06/24 08:25:05;;;;;;;10.15;5.93;;;;;;;;;;5069653;28;20036;-70
2021/06/24 08:27:31;;;;;;;9.75;5.32;;;;;;;;;;5065482;28;20055;-71
2021/06/24 08:29:57;;;;;;;5.93;4.93;;;;;;;;;;5071602;28;20037;-71
2021/06/24 08:32:24;;;;;;;7.15;4.90;;;;;;;;;;5068824;28;20522;-70
2021/06/24 08:34:50;;;;;;;6.72;5.10;;;;;;;;;;5069951;28;20073;-71
2021/06/24 08:37:16;;;;;;;6.70;5.38;;;;;;;;;;5068507;28;20028;-71
2021/06/24 08:39:43;;;;;;;7.90;6.13;;;;;;;;;;5067438;28;20070;-70
2021/06/24 08:42:09;;;;;;;8.23;5.70;;;;;;;;;;5069716;28;20036;-71
2021/06/24 08:44:35;;;;;;;7.68;5.10;;;;;;;;;;5065388;28;20440;-70
2021/06/24 08:47:02;;;;;;;9.45;5.75;;;;;;;;;;5069412;28;20020;-70
2021/06/24 08:49:29;;;;;;;6.18;4.82;;;;;;;;;;5063985;28;20074;-70
2021/06/24 08:51:56;;;;;;;7.30;5.82;;;;;;;;;;5071038;28;20444;-70
2021/06/24 08:54:23;;;;;;;6.53;5.28;;;;;;;;;;5069753;28;20155;-69
2021/06/24 08:56:49;;;;;;;6.90;5.45;;;;;;;;;;5067417;28;20071;-71
2021/06/24 08:59:16;;;;;;;5.55;5.00;;;;;;;;;;5068640;28;20558;-71
2021/06/24 09:01:58;;;;;;;5.88;4.65;;;;;;;;;;5068109;28;20075;-69
2021/06/24 09:04:28;;;;;;;7.32;5.45;;;;;;;;;;5064241;28;20033;-70
2021/06/24 09:07:03;;;;;;;6.97;4.50;;;;;;;;;;5070864;28;20028;-71
2021/06/24 09:09:35;;;;;;;7.63;4.40;;;;;;;;;;5069661;28;20426;-70
2021/06/24 09:12:09;;;;;;;6.10;4.57;;;;;;;;;;5068687;28;20120;-71
2021/06/24 09:14:42;;;;;;;7.50;5.15;;;;;;;;;;5071619;28;20067;-71
2021/06/24 09:17:09;;;;;;;7.45;5.40;;;;;;;;;;5065946;28;20032;-71
2021/06/24 09:19:38;;;;;;;10.18;5.97;;;;;;;;;;5063385;28;20064;-70
2021/06/24 09:22:07;;;;;;;7.57;4.93;;;;;;;;;;5063945;28;20112;-70
2021/06/24 09:24:34;;;;;;;8.82;5.53;;;;;;;;;;5070134;28;20055;-69
2021/06/24 09:27:26;;;;;;;6.05;5.43;;;;;;;;;;5067594;28;20024;-70
2021/06/24 09:29:52;;;;;;;10.55;6.10;;;;;;;;;;5067104;28;20106;-70
2021/06/24 09:32:38;;;;;;;8.05;5.40;;;;;;;;;;5063329;28;20518;-71
2021/06/24 09:35:05;;;;;;;8.55;5.03;;;;;;;;;;5067691;28;20032;-70
2021/06/24 09:37:50;;;;;;;6.53;5.93;;;;;;;;;;5066659;28;20367;-71
2021/06/24 09:40:16;;;;;;;6.13;5.50;;;;;;;;;;5062918;28;20716;-69
2021/06/24 09:42:42;;;;;;;6.63;5.20;;;;;;;;;;5067388;28;20036;-71
2021/06/24 09:45:08;;;;;;;6.53;5.32;;;;;;;;;;5067571;28;20054;-71
2021/06/24 09:47:35;;;;;;;7.50;5.50;;;;;;;;;;5069600;28;20035;-70
2021/06/24 09:50:05;;;;;;;10.80;5.18;;;;;;;;;;5068399;28;20029;-70
2021/06/24 09:52:32;;;;;;;8.57;5.30;;;;;;;;;;5066683;28;20044;-70
2021/06/24 09:55:09;;;;;;;7.38;5.53;;;;;;;;;;5064131;28;20048;-70
2021/06/24 09:57:36;;;;;;;12.60;5.65;;;;;;;;;;5070523;28;20084;-70
2021/06/24 10:00:19;;;;;;;5.78;5.07;;;;;;;;;;5065332;28;20119;-69
2021/06/24 10:03:01;;;;;;;7.45;5.18;;;;;;;;;;5068840;28;20032;-70
2021/06/24 10:05:28;;;;;;;8.40;5.55;;;;;;;;;;5070511;28;20043;-72
2021/06/24 10:07:54;;;;;;;5.88;4.95;;;;;;;;;;5062348;28;20647;-72
2021/06/24 10:10:23;;;;;;;8.55;5.43;;;;;;;;;;5066419;28;20032;-71
2021/06/24 10:12:49;;;;;;;6.55;4.60;;;;;;;;;;5076318;28;20033;-70
2021/06/24 10:15:16;;;;;;;9.82;5.13;;;;;;;;;;5072472;28;20056;-71
2021/06/24 10:17:43;;;;;;;7.20;5.13;;;;;;;;;;5069710;28;20573;-70
2021/06/24 10:20:09;;;;;;;7.50;4.68;;;;;;;;;;5072265;28;20064;-71
2021/06/24 10:22:36;;;;;;;7.30;5.47;;;;;;;;;;5071583;28;20074;-71
2021/06/24 10:25:13;;;;;;;6.85;4.47;;;;;;;;;;5072157;28;20191;-70
2021/06/24 10:27:40;;;;;;;9.82;5.35;;;;;;;;;;5065562;28;20032;-71
2021/06/24 10:30:09;;;;;;;7.13;5.28;;;;;;;;;;5074397;28;20024;-70
2021/06/24 10:32:36;;;;;;;5.72;4.80;;;;;;;;;;5069584;28;20110;-71
2021/06/24 10:35:06;;;;;;;8.05;6.18;;;;;;;;;;5074142;28;20087;-71
2021/06/24 10:37:32;;;;;;;6.10;5.10;;;;;;;;;;5065542;28;20443;-70
2021/06/24 10:39:59;;;;;;;7.75;5.20;;;;;;;;;;5071389;28;20056;-71
2021/06/24 10:42:33;;;;;;;5.97;4.50;;;;;;;;;;5065436;28;20086;-69
2021/06/24 10:45:03;;;;;;;9.32;5.57;;;;;;;;;;5067777;28;20195;-70
2021/06/24 10:47:40;;;;;;;7.10;4.88;;;;;;;;;;5072315;28;20497;-70
2021/06/24 10:50:25;;;;;;;7.35;5.13;;;;;;;;;;5060904;28;20090;-71
2021/06/24 10:52:51;;;;;;;9.65;5.28;;;;;;;;;;5078534;28;20056;-71
2021/06/24 10:55:32;;;;;;;8.02;4.75;;;;;;;;;;5070439;28;20107;-70
2021/06/24 10:57:59;;;;;;;8.90;5.10;;;;;;;;;;5071521;28;20380;-70
2021/06/24 11:00:40;;;;;;;6.40;4.95;;;;;;;;;;5070299;28;20788;-71
2021/06/24 11:03:08;;;;;;;7.13;5.15;;;;;;;;;;5072333;28;20675;-70
2021/06/24 11:05:36;;;;;;;7.13;4.90;;;;;;;;;;5075836;28;20029;-70
2021/06/24 11:08:09;;;;;;;6.60;5.22;;;;;;;;;;5071245;28;20475;-70
2021/06/24 11:10:50;;;;;;;8.68;5.78;;;;;;;;;;5065788;28;20034;-71
2021/06/24 11:13:40;;;;;;;11.18;5.70;;;;;;;;;;5069784;28;20471;-71
2021/06/24 11:16:13;;;;;;;6.05;4.78;;;;;;;;;;5068581;28;20033;-71
2021/06/24 11:18:42;;;;;;;7.13;5.15;;;;;;;;;;5069814;28;20560;-71
2021/06/24 11:21:08;;;;;;;6.07;4.25;;;;;;;;;;5070139;28;20056;-71
2021/06/24 11:23:35;;;;;;;6.00;4.53;;;;;;;;;;5069390;28;20032;-72
2021/06/24 11:26:07;;;;;;;6.32;5.32;;;;;;;;;;5070161;28;20036;-70
2021/06/24 11:31:11;;;;;;;5.82;4.85;;;;;;;;;;5071821;28;20032;-71
2021/06/24 11:33:45;;;;;;;5.70;4.68;;;;;;;;;;5073928;28;20062;-71
2021/06/24 11:36:14;;;;;;;5.90;4.50;;;;;;;;;;5069352;28;20151;-72
2021/06/24 11:38:47;;;;;;;7.15;5.18;;;;;;;;;;5068806;28;20051;-72
2021/06/24 11:41:16;;;;;;;5.72;4.05;;;;;;;;;;5065516;28;20028;-71
2021/06/24 11:43:55;;;;;;;7.82;4.38;;;;;;;;;;5063746;28;20086;-70
2021/06/24 11:46:28;;;;;;;5.65;3.80;;;;;;;;;;5068820;28;20137;-72
2021/06/24 12:05:27;;;;;;;8.23;5.55;;;;;;;;;;5069718;28;20039;-72
2021/06/24 12:07:53;;;;;;;8.20;5.90;;;;;;;;;;5069972;28;20525;-72
2021/06/24 12:10:23;;;;;;;9.75;6.25;;;;;;;;;;5069161;28;20033;-72
2021/06/24 12:12:49;;;;;;;7.80;5.75;;;;;;;;;;5069568;28;20412;-72
2021/06/24 12:15:16;;;;;;;8.07;5.95;;;;;;;;;;5069441;28;20034;-72
2021/06/24 12:17:42;;;;;;;7.93;6.00;;;;;;;;;;5069560;28;20025;-72
2021/06/24 12:20:12;;;;;;;6.60;5.32;;;;;;;;;;5063401;28;20025;-72
2021/06/24 12:22:43;;;;;;;6.10;5.05;;;;;;;;;;5069999;28;20028;-72
2021/06/24 12:25:12;;;;;;;7.03;5.57;;;;;;;;;;5069734;28;20029;-72
2021/06/24 12:27:48;;;;;;;6.88;5.18;;;;;;;;;;5060189;28;20065;-72
2021/06/24 12:30:14;;;;;;;6.60;5.22;;;;;;;;;;5067573;28;20565;-72
2021/06/24 12:33:04;;;;;;;7.95;5.43;;;;;;;;;;5068372;28;20380;-71
2021/06/24 12:35:34;;;;;;;8.48;5.75;;;;;;;;;;5065174;28;20644;-71
2021/06/24 12:38:07;;;;;;;7.68;5.18;;;;;;;;;;5069712;28;20028;-71
2021/06/24 12:40:35;;;;;;;4.65;4.13;;;;;;;;;;5064092;28;20020;-72
2021/06/24 12:43:01;;;;;;;6.03;4.97;;;;;;;;;;5074775;28;20032;-72
2021/06/24 12:45:29;;;;;;;8.02;4.95;;;;;;;;;;5058498;28;20556;-71
2021/06/24 12:47:56;;;;;;;8.07;4.90;;;;;;;;;;5069242;28;20368;-70
2021/06/24 12:50:23;;;;;;;6.53;5.25;;;;;;;;;;5069530;28;20052;-72
2021/06/24 12:52:54;;;;;;;7.45;5.20;;;;;;;;;;5065402;28;20052;-71
2021/06/24 12:55:49;;;;;;;6.10;4.85;;;;;;;;;;5068160;28;20534;-72
2021/06/24 12:58:27;;;;;;;6.85;5.22;;;;;;;;;;5068082;28;20049;-72
2021/06/24 13:01:12;;;;;;;6.47;5.20;;;;;;;;;;5061193;28;20033;-72
2021/06/24 13:03:38;;;;;;;8.23;5.20;;;;;;;;;;5063509;28;20037;-74
2021/06/24 13:06:13;;;;;;;7.03;5.45;;;;;;;;;;5069397;28;20032;-73
2021/06/24 13:08:50;;;;;;;9.27;5.10;;;;;;;;;;5073083;28;20060;-72
2021/06/24 13:11:17;;;;;;;8.60;4.93;;;;;;;;;;5069858;28;20040;-72
2021/06/24 13:13:53;;;;;;;7.00;5.20;;;;;;;;;;5071965;28;20028;-72
2021/06/24 13:16:23;;;;;;;6.53;5.00;;;;;;;;;;5068536;28;20078;-72
2021/06/24 13:18:53;;;;;;;9.60;4.80;;;;;;;;;;5068182;28;20032;-72
2021/06/24 13:21:19;;;;;;;5.93;4.63;;;;;;;;;;5073948;28;20530;-72
2021/06/24 13:23:45;;;;;;;6.38;4.32;;;;;;;;;;5071954;28;20032;-72
2021/06/24 13:26:16;;;;;;;5.90;4.47;;;;;;;;;;5072414;28;20123;-73
2021/06/24 13:28:43;;;;;;;6.20;3.80;;;;;;;;;;5062229;28;20044;-72
2021/06/24 13:31:09;;;;;;;4.75;4.03;;;;;;;;;;5059794;28;20491;-70
2021/06/24 13:33:36;;;;;;;6.43;4.30;;;;;;;;;;5067724;28;20108;-73
2021/06/24 13:36:17;;;;;;;6.28;3.88;;;;;;;;;;5069654;28;20029;-73
2021/06/24 13:38:59;;;;;;;4.90;3.90;;;;;;;;;;5078200;28;20107;-70
2021/06/24 13:41:30;;;;;;;7.55;4.40;;;;;;;;;;5068631;28;20419;-72
2021/06/24 13:44:07;;;;;;;6.75;4.97;;;;;;;;;;5071049;28;20031;-72
2021/06/24 13:46:34;;;;;;;6.72;4.82;;;;;;;;;;5071216;28;20037;-72
2021/06/24 13:49:00;;;;;;;6.65;4.68;;;;;;;;;;5074748;28;20032;-72
2021/06/24 13:51:26;;;;;;;6.28;5.28;;;;;;;;;;5071092;28;20107;-72
2021/06/24 13:53:59;;;;;;;7.45;5.05;;;;;;;;;;5073785;28;20383;-72
2021/06/24 13:56:25;;;;;;;5.07;4.00;;;;;;;;;;5067608;28;20324;-71
2021/06/24 13:58:51;;;;;;;4.80;4.10;;;;;;;;;;5074303;28;20402;-72
2021/06/24 14:01:18;;;;;;;5.43;4.35;;;;;;;;;;5073146;28;20069;-72
2021/06/24 14:03:45;;;;;;;6.93;5.32;;;;;;;;;;5071146;28;20111;-72
2021/06/24 14:06:11;;;;;;;6.78;5.30;;;;;;;;;;5068140;28;20028;-73
2021/06/24 14:08:37;;;;;;;6.75;5.65;;;;;;;;;;5067253;28;20056;-71
2021/06/24 14:11:03;;;;;;;6.88;5.03;;;;;;;;;;5072956;28;20099;-71
2021/06/24 14:13:33;;;;;;;7.47;4.97;;;;;;;;;;5072492;28;20440;-72
2021/06/24 14:15:59;;;;;;;9.45;5.18;;;;;;;;;;5065172;28;20119;-72
2021/06/24 14:18:25;;;;;;;6.07;5.00;;;;;;;;;;5072275;28;20032;-71
2021/06/24 14:20:51;;;;;;;7.60;5.07;;;;;;;;;;5075960;28;20021;-70
2021/06/24 14:23:18;;;;;;;6.88;4.65;;;;;;;;;;5070868;28;20613;-70
2021/06/24 14:25:50;;;;;;;7.45;4.13;;;;;;;;;;5070563;28;20032;-72
2021/06/24 14:28:16;;;;;;;5.57;3.10;;;;;;;;;;5072757;28;20024;-72
2021/06/24 14:30:42;;;;;;;3.55;3.05;;;;;;;;;;5068918;28;20028;-72
2021/06/24 14:33:09;;;;;;;4.85;3.50;;;;;;;;;;5072381;28;20159;-72
2021/06/24 14:35:35;;;;;;;4.28;3.00;;;;;;;;;;5077636;28;20024;-72
2021/06/24 14:38:01;;;;;;;4.97;3.10;;;;;;;;;;5064594;28;20036;-73
2021/06/24 14:40:29;;;;;;;3.90;3.30;;;;;;;;;;5072336;28;20029;-73
2021/06/24 14:42:55;;;;;;;4.00;2.97;;;;;;;;;;5068937;28;20025;-74
2021/06/24 14:45:21;;;;;;;6.00;3.30;;;;;;;;;;5071428;28;20033;-72
2021/06/24 14:47:47;;;;;;;3.13;2.70;;;;;;;;;;5063687;28;20130;-73
2021/06/24 14:50:14;;;;;;;3.28;2.90;;;;;;;;;;5068954;28;20031;-74
2021/06/24 14:52:40;;;;;;;3.88;2.60;;;;;;;;;;5073349;28;20046;-74
2021/06/24 14:55:06;;;;;;;3.25;2.55;;;;;;;;;;5062936;28;20036;-75
2021/06/24 14:57:32;;;;;;;2.60;2.40;;;;;;;;;;5064250;28;20149;-72